FNLUFNBG

Guest
Details From FNLU - LUANDA 4 DE FEVEREIRO
To FNBG - BENGUELA
Flight Number -
Tags generated
Created
Modified
Stats Distance 226 nm / 418 km
Max Altitude 27,000 ft / 8,230 m
Waypoints 5
Social Downloads 0
Likes 0
Share VATSIM

Download

Looking for another format? Having issues loading an existing format? Contact us
Advertisement - Login to hide

Notes

Basic altitude profile: - Ascent Rate: 2500ft/min - Ascent Speed: 250kts - Cruise Altitude: 35000ft - Cruise Speed: 420kts - Descent Rate: 1500ft/min - Descent Speed: 250kts Options: - Use NATs: yes - Use PACOTS: yes - Use low airways: yes - Use high airways: yes

Route

FNLU EXALA J614F BG FNBG

ID Type Via Altitude Latitude Longitude Leg Dist Tot Dist Heading (true) Name
O FNLU APT - 0 ft / 0 m -8.85838˚ 13.23118˚ - 0 nm - LUANDA 4 DE FEVEREIRO
EXALA FIX - 27,000 ft / 8,230 m -10.16583˚ 13.29667˚ 78 nm 78 nm 177° / 177° -
LIRAM FIX J614F (AWY-LO) 21,800 ft / 6,645 m -10.83333˚ 13.33000˚ 40 nm 118 nm 177° / 177° -
BG NDB J614F (AWY-LO) 6,000 ft / 1,829 m -12.60813˚ 13.40540˚ 106 nm 225 nm 178° / 178° BENGUELA NDB
O FNBG APT - 0 ft / 0 m -12.60902˚ 13.40371˚ 0 nm 225 nm 242° / 242° BENGUELA

Altitude Profile

Advertisement - Login to hide

Weather


0- 5 10 15 20 25 30 35+ Temperature / ° C

Clouds and Precipitation
Forecast for 2018-05-25 12:00 UTC. Updated 4 hours ago

Ground ~20,000 ft ~40,000 ft Winds

FNLU

Details ICAO FNLU (LAD)
Name LUANDA 4 DE FEVEREIRO
Region Angola
Timezone Africa/Luanda (UTC+1.0)
Stats Elevation 243 ft / 74 m (AMSL)
Location -8.858377° 13.231178°
Runways 2
Magnetic Variation 3.407° W

METAR

FNLU 251400Z 27011KT CAVOK 27/19 Q1008 NOSIG

Decode

TAF

TAF TAF FNLU 251125Z 2512/2618 30007KT CAVOK PROB30 TEMPO 2512/2516 24008KT BECMG 2520/2522 18006KT 9999 FEW020 PROB30 TEMPO 2600/2604 VRB03KT 5000 BR SCT018 BKN020 BECMG 2607/2610 24008KT 8000 FEW015 BKN050

Decode

Departure Runways

ID Width Length Bearing (true) Bearing (mag) Surface Threshold Offset Overrun Length
05 148 ft / 45 m 12,153 ft / 3,704 m 46.63° 50.04° Asphalt 0 ft / 0 m 0 ft / 0 m
07 197 ft / 60 m 8,176 ft / 2,492 m 67.40° 70.81° Asphalt 0 ft / 0 m 176 ft / 54 m
23 148 ft / 45 m 12,153 ft / 3,704 m 226.62° 230.03° Asphalt 500 ft / 152 m 0 ft / 0 m
25 197 ft / 60 m 8,176 ft / 2,492 m 247.40° 250.81° Asphalt 0 ft / 0 m 0 ft / 0 m

FNBG

Details ICAO FNBG (BUG)
Name BENGUELA
Region Angola
Timezone Africa/Luanda (UTC+1.0)
Stats Elevation 118 ft / 36 m (AMSL)
Location -12.609023° 13.403712°
Runways 1
Magnetic Variation 5.069° W

METAR

FNBG 251400Z 30008KT 9999 FEW020 27/22 Q1009

Decode

TAF

Not found

Destination Runways

ID Width Length Bearing (true) Bearing (mag) Surface Threshold Offset Overrun Length
14 100 ft / 30 m 5,263 ft / 1,604 m 130.28° 135.35° Asphalt 0 ft / 0 m 328 ft / 100 m
32 100 ft / 30 m 5,263 ft / 1,604 m 310.28° 315.35° Asphalt 0 ft / 0 m 185 ft / 56 m

Popular Alternatives